Jamestown, Tennessee
Current Conditions -  °F | °C
As of 6:56 AM on Sunday 21 Dec 2014 (Local Time) from KEKQ Reporting Station
Haze Haze  
Wind Chill: 18°   Ceiling: Unl
Heat Index: 18°   Visibility: 2mi
Dew Point: 17°   Wind: 0mph
Humidity: 96%   Direction: NA
Pressure: 30.3"   Gusts: NA
Location:  36.43°N, 84.93°W
Report Text: KEKQ 211256Z AUTO 00000KT 2SM BR CLR M08/M08 A3030 RMK AO2 T10771083 SLP276
Loading
Personal Weather Stations






























Interactive Weather Map New forecast layout! Learn more

10-Day Weather Forecast

Advertisements
Track Severe Weather on mobile